sensor_id;sensor_type;location;lat;lon;timestamp;P1;durP1;ratioP1;P2;durP2;ratioP2
22468;SDS011;11401;50.792;4.352;2022-09-09T00:04:45;1.33;;;0.90;;
22468;SDS011;11401;50.792;4.352;2022-09-09T00:13:03;1.50;;;0.90;;
22468;SDS011;11401;50.792;4.352;2022-09-09T00:15:49;0.95;;;0.90;;
22468;SDS011;11401;50.792;4.352;2022-09-09T00:18:46;3.15;;;0.90;;
22468;SDS011;11401;50.792;4.352;2022-09-09T00:21:17;1.75;;;0.90;;
22468;SDS011;11401;50.792;4.352;2022-09-09T00:23:47;1.02;;;0.82;;
22468;SDS011;11401;50.792;4.352;2022-09-09T00:29:15;1.17;;;0.82;;
22468;SDS011;11401;50.792;4.352;2022-09-09T00:31:43;1.98;;;0.90;;
22468;SDS011;11401;50.792;4.352;2022-09-09T00:36:40;2.05;;;1.05;;
22468;SDS011;11401;50.792;4.352;2022-09-09T00:39:09;2.35;;;1.25;;
22468;SDS011;11401;50.792;4.352;2022-09-09T00:44:59;1.55;;;0.82;;
22468;SDS011;11401;50.792;4.352;2022-09-09T00:47:39;1.10;;;1.00;;
22468;SDS011;11401;50.792;4.352;2022-09-09T00:53:05;1.58;;;0.85;;
22468;SDS011;11401;50.792;4.352;2022-09-09T00:55:48;1.90;;;1.08;;
22468;SDS011;11401;50.792;4.352;2022-09-09T00:58:22;1.35;;;1.15;;
22468;SDS011;11401;50.792;4.352;2022-09-09T01:00:56;2.35;;;1.02;;
22468;SDS011;11401;50.792;4.352;2022-09-09T01:03:47;1.48;;;0.80;;
22468;SDS011;11401;50.792;4.352;2022-09-09T01:14:49;3.88;;;1.45;;
22468;SDS011;11401;50.792;4.352;2022-09-09T01:17:21;1.45;;;0.80;;
22468;SDS011;11401;50.792;4.352;2022-09-09T01:20:03;4.03;;;0.98;;
22468;SDS011;11401;50.792;4.352;2022-09-09T01:23:00;2.60;;;0.88;;
22468;SDS011;11401;50.792;4.352;2022-09-09T01:28:25;2.35;;;0.95;;
22468;SDS011;11401;50.792;4.352;2022-09-09T01:31:00;1.75;;;0.95;;
22468;SDS011;11401;50.792;4.352;2022-09-09T01:33:37;1.88;;;1.10;;
22468;SDS011;11401;50.792;4.352;2022-09-09T01:38:46;5.53;;;1.90;;
22468;SDS011;11401;50.792;4.352;2022-09-09T01:41:14;3.55;;;1.17;;
22468;SDS011;11401;50.792;4.352;2022-09-09T01:43:59;2.08;;;1.02;;
22468;SDS011;11401;50.792;4.352;2022-09-09T01:46:28;1.65;;;1.00;;
22468;SDS011;11401;50.792;4.352;2022-09-09T01:48:56;2.78;;;1.00;;
22468;SDS011;11401;50.792;4.352;2022-09-09T01:51:26;3.78;;;1.10;;
22468;SDS011;11401;50.792;4.352;2022-09-09T01:53:54;1.20;;;1.02;;
22468;SDS011;11401;50.792;4.352;2022-09-09T01:59:18;2.60;;;0.95;;
22468;SDS011;11401;50.792;4.352;2022-09-09T02:02:09;2.97;;;0.82;;
22468;SDS011;11401;50.792;4.352;2022-09-09T02:05:13;4.28;;;0.90;;
22468;SDS011;11401;50.792;4.352;2022-09-09T02:08:11;2.28;;;0.90;;
22468;SDS011;11401;50.792;4.352;2022-09-09T02:11:04;4.65;;;1.50;;
22468;SDS011;11401;50.792;4.352;2022-09-09T02:13:43;1.58;;;0.75;;
22468;SDS011;11401;50.792;4.352;2022-09-09T02:21:31;4.28;;;1.00;;
22468;SDS011;11401;50.792;4.352;2022-09-09T02:24:02;1.88;;;1.05;;
22468;SDS011;11401;50.792;4.352;2022-09-09T02:26:37;3.45;;;0.95;;
22468;SDS011;11401;50.792;4.352;2022-09-09T02:29:11;2.63;;;1.20;;
22468;SDS011;11401;50.792;4.352;2022-09-09T02:31:46;2.50;;;1.08;;
22468;SDS011;11401;50.792;4.352;2022-09-09T02:34:20;1.55;;;1.00;;
22468;SDS011;11401;50.792;4.352;2022-09-09T02:36:49;2.40;;;1.23;;
22468;SDS011;11401;50.792;4.352;2022-09-09T02:39:19;3.42;;;0.95;;
22468;SDS011;11401;50.792;4.352;2022-09-09T02:41:48;2.17;;;1.23;;
22468;SDS011;11401;50.792;4.352;2022-09-09T02:44:16;3.65;;;1.10;;
22468;SDS011;11401;50.792;4.352;2022-09-09T02:47:01;3.13;;;1.20;;
22468;SDS011;11401;50.792;4.352;2022-09-09T02:52:21;2.05;;;0.95;;
22468;SDS011;11401;50.792;4.352;2022-09-09T02:54:57;2.95;;;1.05;;
22468;SDS011;11401;50.792;4.352;2022-09-09T02:57:30;1.83;;;0.80;;
22468;SDS011;11401;50.792;4.352;2022-09-09T02:59:59;2.00;;;0.98;;
22468;SDS011;11401;50.792;4.352;2022-09-09T03:02:30;3.70;;;1.00;;
22468;SDS011;11401;50.792;4.352;2022-09-09T03:05:03;3.17;;;1.25;;
22468;SDS011;11401;50.792;4.352;2022-09-09T03:07:31;1.95;;;0.80;;
22468;SDS011;11401;50.792;4.352;2022-09-09T03:09:59;2.92;;;0.88;;
22468;SDS011;11401;50.792;4.352;2022-09-09T03:12:26;2.13;;;1.00;;
22468;SDS011;11401;50.792;4.352;2022-09-09T03:14:53;2.50;;;1.05;;
22468;SDS011;11401;50.792;4.352;2022-09-09T03:17:20;1.83;;;0.90;;
22468;SDS011;11401;50.792;4.352;2022-09-09T03:19:51;1.90;;;1.20;;
22468;SDS011;11401;50.792;4.352;2022-09-09T03:22:21;3.65;;;1.13;;
22468;SDS011;11401;50.792;4.352;2022-09-09T03:24:48;2.15;;;1.10;;
22468;SDS011;11401;50.792;4.352;2022-09-09T03:27:15;4.63;;;1.40;;
22468;SDS011;11401;50.792;4.352;2022-09-09T03:29:43;3.55;;;1.38;;
22468;SDS011;11401;50.792;4.352;2022-09-09T03:32:14;2.05;;;1.15;;
22468;SDS011;11401;50.792;4.352;2022-09-09T03:34:43;3.85;;;0.98;;
22468;SDS011;11401;50.792;4.352;2022-09-09T03:37:12;3.70;;;1.63;;
22468;SDS011;11401;50.792;4.352;2022-09-09T03:39:39;7.35;;;1.77;;
22468;SDS011;11401;50.792;4.352;2022-09-09T03:42:08;4.22;;;1.30;;
22468;SDS011;11401;50.792;4.352;2022-09-09T03:44:34;1.88;;;0.98;;
22468;SDS011;11401;50.792;4.352;2022-09-09T03:47:01;2.75;;;1.17;;
22468;SDS011;11401;50.792;4.352;2022-09-09T03:49:28;3.67;;;1.35;;
22468;SDS011;11401;50.792;4.352;2022-09-09T03:51:56;2.20;;;1.27;;
22468;SDS011;11401;50.792;4.352;2022-09-09T03:54:24;2.45;;;1.20;;
22468;SDS011;11401;50.792;4.352;2022-09-09T03:56:51;4.75;;;1.55;;
22468;SDS011;11401;50.792;4.352;2022-09-09T03:59:20;4.25;;;1.30;;
22468;SDS011;11401;50.792;4.352;2022-09-09T04:01:47;5.50;;;1.30;;
22468;SDS011;11401;50.792;4.352;2022-09-09T04:04:15;6.70;;;1.20;;
22468;SDS011;11401;50.792;4.352;2022-09-09T04:06:42;3.88;;;1.50;;
22468;SDS011;11401;50.792;4.352;2022-09-09T04:09:09;6.28;;;1.42;;
22468;SDS011;11401;50.792;4.352;2022-09-09T04:11:36;5.30;;;1.50;;
22468;SDS011;11401;50.792;4.352;2022-09-09T04:14:03;4.63;;;1.80;;
22468;SDS011;11401;50.792;4.352;2022-09-09T04:16:33;2.20;;;1.10;;
22468;SDS011;11401;50.792;4.352;2022-09-09T04:19:01;3.80;;;1.17;;
22468;SDS011;11401;50.792;4.352;2022-09-09T04:21:30;3.40;;;1.40;;
22468;SDS011;11401;50.792;4.352;2022-09-09T04:23:59;2.17;;;1.20;;
22468;SDS011;11401;50.792;4.352;2022-09-09T04:26:26;3.40;;;1.27;;
22468;SDS011;11401;50.792;4.352;2022-09-09T04:28:53;3.38;;;1.90;;
22468;SDS011;11401;50.792;4.352;2022-09-09T04:31:21;3.45;;;1.30;;
22468;SDS011;11401;50.792;4.352;2022-09-09T04:33:52;3.78;;;1.38;;
22468;SDS011;11401;50.792;4.352;2022-09-09T04:36:20;3.75;;;1.70;;
22468;SDS011;11401;50.792;4.352;2022-09-09T04:38:50;4.07;;;1.52;;
22468;SDS011;11401;50.792;4.352;2022-09-09T04:41:17;3.35;;;1.58;;
22468;SDS011;11401;50.792;4.352;2022-09-09T04:43:49;3.92;;;1.40;;
22468;SDS011;11401;50.792;4.352;2022-09-09T04:46:16;2.85;;;1.40;;
22468;SDS011;11401;50.792;4.352;2022-09-09T04:48:47;5.82;;;1.67;;
22468;SDS011;11401;50.792;4.352;2022-09-09T04:51:16;4.13;;;1.60;;
22468;SDS011;11401;50.792;4.352;2022-09-09T04:53:46;3.40;;;1.00;;
22468;SDS011;11401;50.792;4.352;2022-09-09T04:56:16;6.10;;;1.42;;
22468;SDS011;11401;50.792;4.352;2022-09-09T04:58:49;3.50;;;1.20;;
22468;SDS011;11401;50.792;4.352;2022-09-09T05:01:19;6.32;;;1.27;;
22468;SDS011;11401;50.792;4.352;2022-09-09T05:03:54;3.92;;;1.52;;
22468;SDS011;11401;50.792;4.352;2022-09-09T05:06:22;7.68;;;1.92;;
22468;SDS011;11401;50.792;4.352;2022-09-09T05:08:55;3.30;;;1.27;;
22468;SDS011;11401;50.792;4.352;2022-09-09T05:11:26;6.20;;;1.60;;
22468;SDS011;11401;50.792;4.352;2022-09-09T05:13:59;3.08;;;1.88;;
22468;SDS011;11401;50.792;4.352;2022-09-09T05:16:28;4.70;;;1.48;;
22468;SDS011;11401;50.792;4.352;2022-09-09T05:18:56;5.25;;;1.60;;
22468;SDS011;11401;50.792;4.352;2022-09-09T05:21:31;7.30;;;2.03;;
22468;SDS011;11401;50.792;4.352;2022-09-09T05:23:58;5.32;;;1.30;;
22468;SDS011;11401;50.792;4.352;2022-09-09T05:26:26;2.42;;;1.30;;
22468;SDS011;11401;50.792;4.352;2022-09-09T05:28:56;3.47;;;1.65;;
22468;SDS011;11401;50.792;4.352;2022-09-09T05:31:25;7.78;;;1.45;;
22468;SDS011;11401;50.792;4.352;2022-09-09T05:33:54;3.55;;;1.52;;
22468;SDS011;11401;50.792;4.352;2022-09-09T05:36:21;4.60;;;1.25;;
22468;SDS011;11401;50.792;4.352;2022-09-09T05:38:53;4.03;;;1.42;;
22468;SDS011;11401;50.792;4.352;2022-09-09T05:41:21;6.75;;;1.35;;
22468;SDS011;11401;50.792;4.352;2022-09-09T05:43:52;8.73;;;2.05;;
22468;SDS011;11401;50.792;4.352;2022-09-09T05:46:21;8.60;;;1.90;;
22468;SDS011;11401;50.792;4.352;2022-09-09T05:48:52;10.15;;;1.98;;
22468;SDS011;11401;50.792;4.352;2022-09-09T05:51:26;4.15;;;1.60;;
22468;SDS011;11401;50.792;4.352;2022-09-09T05:53:58;5.88;;;1.63;;
22468;SDS011;11401;50.792;4.352;2022-09-09T05:56:28;4.55;;;1.73;;
22468;SDS011;11401;50.792;4.352;2022-09-09T05:58:58;4.85;;;1.60;;
22468;SDS011;11401;50.792;4.352;2022-09-09T06:03:56;9.02;;;1.77;;
22468;SDS011;11401;50.792;4.352;2022-09-09T06:06:24;5.72;;;1.65;;
22468;SDS011;11401;50.792;4.352;2022-09-09T06:08:56;8.90;;;1.90;;
22468;SDS011;11401;50.792;4.352;2022-09-09T06:11:29;6.75;;;1.67;;
22468;SDS011;11401;50.792;4.352;2022-09-09T06:13:58;7.40;;;1.40;;
22468;SDS011;11401;50.792;4.352;2022-09-09T06:16:28;4.25;;;1.33;;
22468;SDS011;11401;50.792;4.352;2022-09-09T06:18:56;5.38;;;2.13;;
22468;SDS011;11401;50.792;4.352;2022-09-09T06:21:35;8.35;;;1.60;;
22468;SDS011;11401;50.792;4.352;2022-09-09T06:24:05;4.28;;;1.63;;
22468;SDS011;11401;50.792;4.352;2022-09-09T06:26:35;4.10;;;1.73;;
22468;SDS011;11401;50.792;4.352;2022-09-09T06:29:04;4.72;;;1.58;;
22468;SDS011;11401;50.792;4.352;2022-09-09T06:31:32;5.88;;;1.83;;
22468;SDS011;11401;50.792;4.352;2022-09-09T06:34:08;5.20;;;1.75;;
22468;SDS011;11401;50.792;4.352;2022-09-09T06:36:39;5.32;;;1.40;;
22468;SDS011;11401;50.792;4.352;2022-09-09T06:39:07;5.18;;;1.67;;
22468;SDS011;11401;50.792;4.352;2022-09-09T06:41:40;4.38;;;1.60;;
22468;SDS011;11401;50.792;4.352;2022-09-09T06:44:27;2.30;;;1.30;;
22468;SDS011;11401;50.792;4.352;2022-09-09T06:47:01;3.17;;;1.27;;
22468;SDS011;11401;50.792;4.352;2022-09-09T06:49:28;3.28;;;1.23;;
22468;SDS011;11401;50.792;4.352;2022-09-09T06:51:55;4.40;;;1.65;;
22468;SDS011;11401;50.792;4.352;2022-09-09T06:54:22;3.17;;;1.40;;
22468;SDS011;11401;50.792;4.352;2022-09-09T06:56:52;4.35;;;1.45;;
22468;SDS011;11401;50.792;4.352;2022-09-09T06:59:22;3.33;;;1.30;;
22468;SDS011;11401;50.792;4.352;2022-09-09T07:01:52;4.40;;;1.27;;
22468;SDS011;11401;50.792;4.352;2022-09-09T07:04:22;7.53;;;2.05;;
22468;SDS011;11401;50.792;4.352;2022-09-09T07:06:49;3.45;;;1.60;;
22468;SDS011;11401;50.792;4.352;2022-09-09T07:09:22;4.80;;;1.60;;
22468;SDS011;11401;50.792;4.352;2022-09-09T07:11:52;6.35;;;1.40;;
22468;SDS011;11401;50.792;4.352;2022-09-09T07:14:21;6.80;;;1.60;;
22468;SDS011;11401;50.792;4.352;2022-09-09T07:16:58;1.88;;;1.05;;
22468;SDS011;11401;50.792;4.352;2022-09-09T07:19:31;4.35;;;1.30;;
22468;SDS011;11401;50.792;4.352;2022-09-09T07:21:59;3.00;;;1.30;;
22468;SDS011;11401;50.792;4.352;2022-09-09T07:24:26;5.97;;;1.35;;
22468;SDS011;11401;50.792;4.352;2022-09-09T07:26:57;2.72;;;1.55;;
22468;SDS011;11401;50.792;4.352;2022-09-09T07:29:25;4.68;;;1.55;;
22468;SDS011;11401;50.792;4.352;2022-09-09T07:31:52;2.50;;;1.20;;
22468;SDS011;11401;50.792;4.352;2022-09-09T07:34:24;3.10;;;1.35;;
22468;SDS011;11401;50.792;4.352;2022-09-09T07:36:51;8.05;;;1.63;;
22468;SDS011;11401;50.792;4.352;2022-09-09T07:39:19;4.30;;;1.45;;
22468;SDS011;11401;50.792;4.352;2022-09-09T07:41:50;7.60;;;1.65;;
22468;SDS011;11401;50.792;4.352;2022-09-09T07:44:21;5.65;;;1.52;;
22468;SDS011;11401;50.792;4.352;2022-09-09T07:46:55;4.65;;;1.40;;
22468;SDS011;11401;50.792;4.352;2022-09-09T07:49:28;6.05;;;1.40;;
22468;SDS011;11401;50.792;4.352;2022-09-09T07:51:59;4.38;;;1.73;;
22468;SDS011;11401;50.792;4.352;2022-09-09T07:54:27;6.13;;;1.50;;
22468;SDS011;11401;50.792;4.352;2022-09-09T07:56:54;3.17;;;1.17;;
22468;SDS011;11401;50.792;4.352;2022-09-09T07:59:25;3.88;;;1.40;;
22468;SDS011;11401;50.792;4.352;2022-09-09T08:01:53;6.18;;;1.75;;
22468;SDS011;11401;50.792;4.352;2022-09-09T08:04:25;6.20;;;1.80;;
22468;SDS011;11401;50.792;4.352;2022-09-09T08:06:54;4.22;;;1.42;;
22468;SDS011;11401;50.792;4.352;2022-09-09T08:09:27;2.08;;;1.25;;
22468;SDS011;11401;50.792;4.352;2022-09-09T08:12:15;5.13;;;1.80;;
22468;SDS011;11401;50.792;4.352;2022-09-09T08:14:43;3.50;;;1.42;;
22468;SDS011;11401;50.792;4.352;2022-09-09T08:17:10;3.17;;;1.17;;
22468;SDS011;11401;50.792;4.352;2022-09-09T08:19:37;2.85;;;1.20;;
22468;SDS011;11401;50.792;4.352;2022-09-09T08:22:10;4.85;;;1.80;;
22468;SDS011;11401;50.792;4.352;2022-09-09T08:24:38;7.00;;;1.40;;
22468;SDS011;11401;50.792;4.352;2022-09-09T08:27:06;3.53;;;1.17;;
22468;SDS011;11401;50.792;4.352;2022-09-09T08:29:33;4.25;;;1.58;;
22468;SDS011;11401;50.792;4.352;2022-09-09T08:32:01;3.45;;;1.45;;
22468;SDS011;11401;50.792;4.352;2022-09-09T08:34:28;3.15;;;1.55;;
22468;SDS011;11401;50.792;4.352;2022-09-09T08:36:59;4.95;;;1.77;;
22468;SDS011;11401;50.792;4.352;2022-09-09T08:39:34;3.53;;;1.20;;
22468;SDS011;11401;50.792;4.352;2022-09-09T08:42:09;5.63;;;1.20;;
22468;SDS011;11401;50.792;4.352;2022-09-09T08:44:48;4.80;;;1.70;;
22468;SDS011;11401;50.792;4.352;2022-09-09T08:50:28;2.17;;;1.20;;
22468;SDS011;11401;50.792;4.352;2022-09-09T08:58:20;3.03;;;1.08;;
22468;SDS011;11401;50.792;4.352;2022-09-09T09:06:26;4.50;;;1.45;;
22468;SDS011;11401;50.792;4.352;2022-09-09T09:11:38;3.10;;;1.17;;
22468;SDS011;11401;50.792;4.352;2022-09-09T09:14:23;2.58;;;1.13;;
22468;SDS011;11401;50.792;4.352;2022-09-09T09:16:58;4.22;;;1.50;;
22468;SDS011;11401;50.792;4.352;2022-09-09T09:19:28;4.45;;;1.70;;
22468;SDS011;11401;50.792;4.352;2022-09-09T09:24:53;3.58;;;1.40;;
22468;SDS011;11401;50.792;4.352;2022-09-09T09:30:39;4.63;;;1.27;;
22468;SDS011;11401;50.792;4.352;2022-09-09T09:33:29;3.75;;;1.30;;
22468;SDS011;11401;50.792;4.352;2022-09-09T09:35:58;4.50;;;1.88;;
22468;SDS011;11401;50.792;4.352;2022-09-09T09:38:27;2.90;;;1.38;;
22468;SDS011;11401;50.792;4.352;2022-09-09T09:41:15;2.28;;;1.13;;
22468;SDS011;11401;50.792;4.352;2022-09-09T09:43:53;3.20;;;1.70;;
22468;SDS011;11401;50.792;4.352;2022-09-09T09:46:22;5.50;;;1.40;;
22468;SDS011;11401;50.792;4.352;2022-09-09T09:49:04;2.72;;;1.33;;
22468;SDS011;11401;50.792;4.352;2022-09-09T09:51:36;2.30;;;0.95;;
22468;SDS011;11401;50.792;4.352;2022-09-09T09:54:27;2.53;;;1.40;;
22468;SDS011;11401;50.792;4.352;2022-09-09T09:57:12;4.25;;;1.70;;
22468;SDS011;11401;50.792;4.352;2022-09-09T09:59:44;2.50;;;1.30;;
22468;SDS011;11401;50.792;4.352;2022-09-09T10:02:24;4.78;;;1.20;;
22468;SDS011;11401;50.792;4.352;2022-09-09T10:05:04;4.75;;;1.20;;
22468;SDS011;11401;50.792;4.352;2022-09-09T10:07:34;2.63;;;1.10;;
22468;SDS011;11401;50.792;4.352;2022-09-09T10:10:04;3.30;;;1.17;;
22468;SDS011;11401;50.792;4.352;2022-09-09T10:15:26;4.80;;;1.88;;
22468;SDS011;11401;50.792;4.352;2022-09-09T10:30:24;5.03;;;1.60;;
22468;SDS011;11401;50.792;4.352;2022-09-09T10:35:48;7.25;;;1.98;;
22468;SDS011;11401;50.792;4.352;2022-09-09T10:38:46;3.15;;;1.70;;
22468;SDS011;11401;50.792;4.352;2022-09-09T10:41:15;3.55;;;1.52;;
22468;SDS011;11401;50.792;4.352;2022-09-09T10:43:56;3.00;;;1.42;;
22468;SDS011;11401;50.792;4.352;2022-09-09T10:54:37;2.78;;;1.33;;
22468;SDS011;11401;50.792;4.352;2022-09-09T10:57:26;2.05;;;1.33;;
22468;SDS011;11401;50.792;4.352;2022-09-09T11:03:03;1.65;;;0.90;;
22468;SDS011;11401;50.792;4.352;2022-09-09T11:08:18;2.47;;;0.95;;
22468;SDS011;11401;50.792;4.352;2022-09-09T11:18:48;1.83;;;1.00;;
22468;SDS011;11401;50.792;4.352;2022-09-09T11:21:21;4.38;;;1.30;;
22468;SDS011;11401;50.792;4.352;2022-09-09T11:23:54;3.03;;;1.23;;
22468;SDS011;11401;50.792;4.352;2022-09-09T11:26:36;4.22;;;1.17;;
22468;SDS011;11401;50.792;4.352;2022-09-09T11:32:00;2.00;;;1.20;;
22468;SDS011;11401;50.792;4.352;2022-09-09T11:35:06;3.50;;;1.20;;
22468;SDS011;11401;50.792;4.352;2022-09-09T11:40:29;2.05;;;1.38;;
22468;SDS011;11401;50.792;4.352;2022-09-09T11:45:35;3.38;;;1.60;;
22468;SDS011;11401;50.792;4.352;2022-09-09T11:48:03;2.55;;;1.42;;
22468;SDS011;11401;50.792;4.352;2022-09-09T11:50:36;3.75;;;0.90;;
22468;SDS011;11401;50.792;4.352;2022-09-09T11:55:40;3.33;;;1.30;;
22468;SDS011;11401;50.792;4.352;2022-09-09T12:00:44;3.92;;;1.25;;
22468;SDS011;11401;50.792;4.352;2022-09-09T12:08:45;2.58;;;1.17;;
22468;SDS011;11401;50.792;4.352;2022-09-09T12:11:28;1.60;;;1.13;;
22468;SDS011;11401;50.792;4.352;2022-09-09T12:13:57;2.95;;;1.27;;
22468;SDS011;11401;50.792;4.352;2022-09-09T12:16:29;3.20;;;1.23;;
22468;SDS011;11401;50.792;4.352;2022-09-09T12:19:12;4.78;;;1.00;;
22468;SDS011;11401;50.792;4.352;2022-09-09T12:21:58;1.40;;;1.10;;
22468;SDS011;11401;50.792;4.352;2022-09-09T12:24:35;3.28;;;1.15;;
22468;SDS011;11401;50.792;4.352;2022-09-09T12:32:16;4.47;;;1.48;;
22468;SDS011;11401;50.792;4.352;2022-09-09T12:34:48;3.08;;;1.20;;
22468;SDS011;11401;50.792;4.352;2022-09-09T12:37:32;2.28;;;1.05;;
22468;SDS011;11401;50.792;4.352;2022-09-09T12:40:04;2.22;;;1.00;;
22468;SDS011;11401;50.792;4.352;2022-09-09T12:42:44;3.55;;;1.40;;
22468;SDS011;11401;50.792;4.352;2022-09-09T12:45:15;5.15;;;1.23;;
22468;SDS011;11401;50.792;4.352;2022-09-09T12:47:59;1.73;;;0.88;;
22468;SDS011;11401;50.792;4.352;2022-09-09T12:50:34;2.30;;;1.30;;
22468;SDS011;11401;50.792;4.352;2022-09-09T12:53:06;1.42;;;1.17;;
22468;SDS011;11401;50.792;4.352;2022-09-09T12:55:36;1.77;;;1.08;;
22468;SDS011;11401;50.792;4.352;2022-09-09T12:58:06;2.70;;;1.10;;
22468;SDS011;11401;50.792;4.352;2022-09-09T13:00:33;2.05;;;1.20;;
22468;SDS011;11401;50.792;4.352;2022-09-09T13:03:02;2.20;;;1.23;;
22468;SDS011;11401;50.792;4.352;2022-09-09T13:05:42;2.33;;;1.20;;
22468;SDS011;11401;50.792;4.352;2022-09-09T13:08:10;3.10;;;1.10;;
22468;SDS011;11401;50.792;4.352;2022-09-09T13:10:49;4.60;;;1.48;;
22468;SDS011;11401;50.792;4.352;2022-09-09T13:13:38;1.88;;;1.17;;
22468;SDS011;11401;50.792;4.352;2022-09-09T13:16:15;2.50;;;1.10;;
22468;SDS011;11401;50.792;4.352;2022-09-09T13:19:08;1.98;;;0.80;;
22468;SDS011;11401;50.792;4.352;2022-09-09T13:21:41;3.38;;;1.02;;
22468;SDS011;11401;50.792;4.352;2022-09-09T13:24:28;1.67;;;0.95;;
22468;SDS011;11401;50.792;4.352;2022-09-09T13:29:28;1.85;;;0.90;;
22468;SDS011;11401;50.792;4.352;2022-09-09T13:32:06;1.48;;;;;
22468;SDS011;11401;50.792;4.352;2022-09-09T13:34:58;2.15;;;1.23;;
22468;SDS011;11401;50.792;4.352;2022-09-09T13:37:36;1.30;;;0.80;;
22468;SDS011;11401;50.792;4.352;2022-09-09T13:40:05;1.10;;;0.90;;
22468;SDS011;11401;50.792;4.352;2022-09-09T13:42:34;2.40;;;1.05;;
22468;SDS011;11401;50.792;4.352;2022-09-09T13:45:05;2.40;;;1.05;;
22468;SDS011;11401;50.792;4.352;2022-09-09T13:47:43;1.83;;;1.23;;
22468;SDS011;11401;50.792;4.352;2022-09-09T13:52:47;1.70;;;0.73;;
22468;SDS011;11401;50.792;4.352;2022-09-09T13:55:17;3.13;;;1.17;;
22468;SDS011;11401;50.792;4.352;2022-09-09T13:57:55;0.73;;;0.70;;
22468;SDS011;11401;50.792;4.352;2022-09-09T14:00:23;1.73;;;1.00;;
22468;SDS011;11401;50.792;4.352;2022-09-09T14:02:51;1.67;;;1.02;;
22468;SDS011;11401;50.792;4.352;2022-09-09T14:05:21;2.90;;;1.00;;
22468;SDS011;11401;50.792;4.352;2022-09-09T14:07:48;1.77;;;0.93;;
22468;SDS011;11401;50.792;4.352;2022-09-09T14:10:18;1.95;;;0.90;;
22468;SDS011;11401;50.792;4.352;2022-09-09T14:12:46;1.50;;;0.75;;
22468;SDS011;11401;50.792;4.352;2022-09-09T14:15:13;2.10;;;1.00;;
22468;SDS011;11401;50.792;4.352;2022-09-09T14:17:40;3.42;;;1.10;;
22468;SDS011;11401;50.792;4.352;2022-09-09T14:20:08;2.22;;;0.93;;
22468;SDS011;11401;50.792;4.352;2022-09-09T14:22:38;1.20;;;0.88;;
22468;SDS011;11401;50.792;4.352;2022-09-09T14:25:05;4.00;;;1.00;;
22468;SDS011;11401;50.792;4.352;2022-09-09T14:27:33;1.85;;;1.17;;
22468;SDS011;11401;50.792;4.352;2022-09-09T14:30:00;1.55;;;0.80;;
22468;SDS011;11401;50.792;4.352;2022-09-09T14:32:27;2.05;;;1.08;;
22468;SDS011;11401;50.792;4.352;2022-09-09T14:34:55;2.40;;;1.10;;
22468;SDS011;11401;50.792;4.352;2022-09-09T14:37:23;2.08;;;0.82;;
22468;SDS011;11401;50.792;4.352;2022-09-09T14:39:50;2.50;;;1.02;;
22468;SDS011;11401;50.792;4.352;2022-09-09T14:42:17;1.17;;;0.85;;
22468;SDS011;11401;50.792;4.352;2022-09-09T14:44:44;1.13;;;0.88;;
22468;SDS011;11401;50.792;4.352;2022-09-09T14:47:11;1.95;;;0.80;;
22468;SDS011;11401;50.792;4.352;2022-09-09T14:49:38;4.82;;;1.42;;
22468;SDS011;11401;50.792;4.352;2022-09-09T14:52:09;3.33;;;1.30;;
22468;SDS011;11401;50.792;4.352;2022-09-09T14:54:36;3.17;;;1.40;;
22468;SDS011;11401;50.792;4.352;2022-09-09T14:57:03;6.18;;;1.50;;
22468;SDS011;11401;50.792;4.352;2022-09-09T14:59:30;6.25;;;1.55;;
22468;SDS011;11401;50.792;4.352;2022-09-09T15:01:56;5.47;;;1.27;;
22468;SDS011;11401;50.792;4.352;2022-09-09T15:04:23;3.03;;;1.33;;
22468;SDS011;11401;50.792;4.352;2022-09-09T15:06:50;5.45;;;1.35;;
22468;SDS011;11401;50.792;4.352;2022-09-09T15:09:19;4.13;;;1.33;;
22468;SDS011;11401;50.792;4.352;2022-09-09T15:11:46;4.00;;;1.70;;
22468;SDS011;11401;50.792;4.352;2022-09-09T15:14:13;3.67;;;1.40;;
22468;SDS011;11401;50.792;4.352;2022-09-09T15:16:40;3.17;;;1.58;;
22468;SDS011;11401;50.792;4.352;2022-09-09T15:19:07;2.42;;;1.30;;
22468;SDS011;11401;50.792;4.352;2022-09-09T15:21:35;1.52;;;1.10;;
22468;SDS011;11401;50.792;4.352;2022-09-09T15:24:03;6.15;;;1.52;;
22468;SDS011;11401;50.792;4.352;2022-09-09T15:26:30;6.88;;;1.55;;
22468;SDS011;11401;50.792;4.352;2022-09-09T15:28:58;3.88;;;1.10;;
22468;SDS011;11401;50.792;4.352;2022-09-09T15:31:29;4.70;;;1.80;;
22468;SDS011;11401;50.792;4.352;2022-09-09T15:33:59;3.83;;;1.70;;
22468;SDS011;11401;50.792;4.352;2022-09-09T15:36:34;9.98;;;1.55;;
22468;SDS011;11401;50.792;4.352;2022-09-09T15:39:07;10.05;;;1.58;;
22468;SDS011;11401;50.792;4.352;2022-09-09T15:41:39;4.55;;;1.30;;
22468;SDS011;11401;50.792;4.352;2022-09-09T15:44:06;8.63;;;1.80;;
22468;SDS011;11401;50.792;4.352;2022-09-09T15:46:37;3.97;;;1.33;;
22468;SDS011;11401;50.792;4.352;2022-09-09T15:49:07;10.48;;;1.48;;
22468;SDS011;11401;50.792;4.352;2022-09-09T15:51:37;4.72;;;1.58;;
22468;SDS011;11401;50.792;4.352;2022-09-09T15:54:12;4.00;;;1.70;;
22468;SDS011;11401;50.792;4.352;2022-09-09T15:56:43;6.65;;;1.45;;
22468;SDS011;11401;50.792;4.352;2022-09-09T15:59:11;3.38;;;1.42;;
22468;SDS011;11401;50.792;4.352;2022-09-09T16:01:38;4.82;;;1.30;;
22468;SDS011;11401;50.792;4.352;2022-09-09T16:04:06;3.38;;;1.67;;
22468;SDS011;11401;50.792;4.352;2022-09-09T16:06:33;3.03;;;1.35;;
22468;SDS011;11401;50.792;4.352;2022-09-09T16:09:02;8.23;;;1.27;;
22468;SDS011;11401;50.792;4.352;2022-09-09T16:11:32;8.10;;;1.50;;
22468;SDS011;11401;50.792;4.352;2022-09-09T16:14:03;5.15;;;1.40;;
22468;SDS011;11401;50.792;4.352;2022-09-09T16:16:31;5.53;;;1.45;;
22468;SDS011;11401;50.792;4.352;2022-09-09T16:19:08;5.05;;;1.30;;
22468;SDS011;11401;50.792;4.352;2022-09-09T16:21:40;3.92;;;1.40;;
22468;SDS011;11401;50.792;4.352;2022-09-09T16:24:10;1.80;;;1.10;;
22468;SDS011;11401;50.792;4.352;2022-09-09T16:26:40;3.25;;;1.38;;
22468;SDS011;11401;50.792;4.352;2022-09-09T16:29:11;5.10;;;1.20;;
22468;SDS011;11401;50.792;4.352;2022-09-09T16:31:43;5.72;;;1.60;;
22468;SDS011;11401;50.792;4.352;2022-09-09T16:34:11;1.70;;;1.20;;
22468;SDS011;11401;50.792;4.352;2022-09-09T16:36:39;5.85;;;1.60;;
22468;SDS011;11401;50.792;4.352;2022-09-09T16:39:07;2.95;;;1.40;;
22468;SDS011;11401;50.792;4.352;2022-09-09T16:41:37;8.07;;;1.60;;
22468;SDS011;11401;50.792;4.352;2022-09-09T16:44:06;5.97;;;1.98;;
22468;SDS011;11401;50.792;4.352;2022-09-09T16:46:35;3.83;;;1.52;;
22468;SDS011;11401;50.792;4.352;2022-09-09T16:49:09;4.07;;;1.38;;
22468;SDS011;11401;50.792;4.352;2022-09-09T16:51:40;3.42;;;1.27;;
22468;SDS011;11401;50.792;4.352;2022-09-09T16:54:10;6.38;;;1.52;;
22468;SDS011;11401;50.792;4.352;2022-09-09T16:56:38;3.63;;;1.77;;
22468;SDS011;11401;50.792;4.352;2022-09-09T16:59:10;5.38;;;2.03;;
22468;SDS011;11401;50.792;4.352;2022-09-09T17:01:42;5.43;;;1.77;;
22468;SDS011;11401;50.792;4.352;2022-09-09T17:04:12;3.08;;;1.60;;
22468;SDS011;11401;50.792;4.352;2022-09-09T17:06:45;3.00;;;1.50;;
22468;SDS011;11401;50.792;4.352;2022-09-09T17:09:13;4.70;;;1.60;;
22468;SDS011;11401;50.792;4.352;2022-09-09T17:11:41;3.78;;;1.67;;
22468;SDS011;11401;50.792;4.352;2022-09-09T17:14:08;2.92;;;2.05;;
22468;SDS011;11401;50.792;4.352;2022-09-09T17:16:39;5.50;;;1.73;;
22468;SDS011;11401;50.792;4.352;2022-09-09T17:19:06;5.32;;;2.33;;
22468;SDS011;11401;50.792;4.352;2022-09-09T17:21:35;3.45;;;2.13;;
22468;SDS011;11401;50.792;4.352;2022-09-09T17:24:22;4.93;;;2.50;;
22468;SDS011;11401;50.792;4.352;2022-09-09T17:26:51;2.78;;;1.92;;
22468;SDS011;11401;50.792;4.352;2022-09-09T17:29:18;3.72;;;1.73;;
22468;SDS011;11401;50.792;4.352;2022-09-09T17:31:46;4.28;;;1.98;;
22468;SDS011;11401;50.792;4.352;2022-09-09T17:34:13;4.93;;;1.90;;
22468;SDS011;11401;50.792;4.352;2022-09-09T17:36:40;5.85;;;2.08;;